sensor_id;sensor_type;location;lat;lon;timestamp;noise_LAeq;noise_LA_min;noise_LA_max;noise_LA01;noise_LA95
41704;Laerm;861;48.808;9.006;2024-02-26T00:01:04;37.67;36.32;38.84;;
41704;Laerm;861;48.808;9.006;2024-02-26T00:03:31;37.65;36.17;38.88;;
41704;Laerm;861;48.808;9.006;2024-02-26T00:05:59;37.66;36.23;39.10;;
41704;Laerm;861;48.808;9.006;2024-02-26T00:08:26;37.67;36.18;39.11;;
41704;Laerm;861;48.808;9.006;2024-02-26T00:10:53;37.67;36.28;38.97;;
41704;Laerm;861;48.808;9.006;2024-02-26T00:13:20;37.68;36.21;38.84;;
41704;Laerm;861;48.808;9.006;2024-02-26T00:15:47;37.68;36.36;38.82;;
41704;Laerm;861;48.808;9.006;2024-02-26T00:18:13;37.68;36.47;38.94;;
41704;Laerm;861;48.808;9.006;2024-02-26T00:20:40;37.69;36.38;38.98;;
41704;Laerm;861;48.808;9.006;2024-02-26T00:23:09;37.69;36.29;39.03;;
41704;Laerm;861;48.808;9.006;2024-02-26T00:25:36;37.69;36.43;39.14;;
41704;Laerm;861;48.808;9.006;2024-02-26T00:28:05;37.69;36.37;38.97;;
41704;Laerm;861;48.808;9.006;2024-02-26T00:30:32;37.68;36.29;38.99;;
41704;Laerm;861;48.808;9.006;2024-02-26T00:32:59;37.68;36.35;39.18;;
41704;Laerm;861;48.808;9.006;2024-02-26T00:35:25;37.67;36.17;38.98;;
41704;Laerm;861;48.808;9.006;2024-02-26T00:37:52;37.68;36.35;39.23;;
41704;Laerm;861;48.808;9.006;2024-02-26T00:40:18;37.67;36.29;38.87;;
41704;Laerm;861;48.808;9.006;2024-02-26T00:42:45;37.67;36.18;38.87;;
41704;Laerm;861;48.808;9.006;2024-02-26T00:45:14;37.67;36.19;38.94;;
41704;Laerm;861;48.808;9.006;2024-02-26T00:47:41;37.66;36.07;38.92;;
41704;Laerm;861;48.808;9.006;2024-02-26T00:50:08;37.66;36.28;38.97;;
41704;Laerm;861;48.808;9.006;2024-02-26T00:52:35;37.67;36.33;38.88;;
41704;Laerm;861;48.808;9.006;2024-02-26T00:55:04;37.66;36.22;38.95;;
41704;Laerm;861;48.808;9.006;2024-02-26T00:57:31;37.68;36.39;38.94;;
41704;Laerm;861;48.808;9.006;2024-02-26T00:59:57;37.69;36.34;38.88;;
41704;Laerm;861;48.808;9.006;2024-02-26T01:02:25;37.72;36.47;38.91;;
41704;Laerm;861;48.808;9.006;2024-02-26T01:04:53;37.70;36.06;38.94;;
41704;Laerm;861;48.808;9.006;2024-02-26T01:07:20;37.71;36.33;38.92;;
41704;Laerm;861;48.808;9.006;2024-02-26T01:09:47;37.72;36.38;39.09;;
41704;Laerm;861;48.808;9.006;2024-02-26T01:12:15;37.72;36.51;38.89;;
41704;Laerm;861;48.808;9.006;2024-02-26T01:14:42;37.73;36.40;39.02;;
41704;Laerm;861;48.808;9.006;2024-02-26T01:17:09;37.73;36.39;39.14;;
41704;Laerm;861;48.808;9.006;2024-02-26T01:19:36;37.74;36.31;39.01;;
41704;Laerm;861;48.808;9.006;2024-02-26T01:22:03;37.76;36.34;39.22;;
41704;Laerm;861;48.808;9.006;2024-02-26T01:24:30;37.74;36.21;38.92;;
41704;Laerm;861;48.808;9.006;2024-02-26T01:26:56;37.76;36.24;39.17;;
41704;Laerm;861;48.808;9.006;2024-02-26T01:29:23;37.77;36.44;39.12;;
41704;Laerm;861;48.808;9.006;2024-02-26T01:31:49;37.77;36.43;39.08;;
41704;Laerm;861;48.808;9.006;2024-02-26T01:34:16;37.76;36.22;39.03;;
41704;Laerm;861;48.808;9.006;2024-02-26T01:36:44;37.76;36.18;38.90;;
41704;Laerm;861;48.808;9.006;2024-02-26T01:39:11;37.75;36.42;38.99;;
41704;Laerm;861;48.808;9.006;2024-02-26T01:41:42;37.76;36.30;39.13;;
41704;Laerm;861;48.808;9.006;2024-02-26T01:44:12;37.78;36.42;39.06;;
41704;Laerm;861;48.808;9.006;2024-02-26T01:46:39;37.83;36.57;39.07;;
41704;Laerm;861;48.808;9.006;2024-02-26T01:49:08;37.82;36.53;39.14;;
41704;Laerm;861;48.808;9.006;2024-02-26T01:51:42;37.81;36.58;39.16;;
41704;Laerm;861;48.808;9.006;2024-02-26T01:54:10;37.82;36.59;39.04;;
41704;Laerm;861;48.808;9.006;2024-02-26T01:56:41;37.84;36.31;39.04;;
41704;Laerm;861;48.808;9.006;2024-02-26T01:59:10;37.84;36.42;39.09;;
41704;Laerm;861;48.808;9.006;2024-02-26T02:01:44;37.84;36.45;39.14;;
41704;Laerm;861;48.808;9.006;2024-02-26T02:04:13;37.85;36.49;39.30;;
41704;Laerm;861;48.808;9.006;2024-02-26T02:06:45;37.84;36.44;39.26;;
41704;Laerm;861;48.808;9.006;2024-02-26T02:09:13;37.84;36.46;38.93;;
41704;Laerm;861;48.808;9.006;2024-02-26T02:11:41;37.86;36.48;39.02;;
41704;Laerm;861;48.808;9.006;2024-02-26T02:14:08;37.83;36.56;38.99;;
41704;Laerm;861;48.808;9.006;2024-02-26T02:16:34;37.83;36.58;39.04;;
41704;Laerm;861;48.808;9.006;2024-02-26T02:19:01;37.81;36.41;39.07;;
41704;Laerm;861;48.808;9.006;2024-02-26T02:21:28;37.82;36.43;39.04;;
41704;Laerm;861;48.808;9.006;2024-02-26T02:23:54;37.84;36.24;39.24;;
41704;Laerm;861;48.808;9.006;2024-02-26T02:26:21;37.91;36.28;42.30;;
41704;Laerm;861;48.808;9.006;2024-02-26T02:28:49;37.85;36.37;39.27;;
41704;Laerm;861;48.808;9.006;2024-02-26T02:31:17;37.85;36.55;40.11;;
41704;Laerm;861;48.808;9.006;2024-02-26T02:33:44;37.81;36.56;40.41;;
41704;Laerm;861;48.808;9.006;2024-02-26T02:36:11;37.57;36.33;38.76;;
41704;Laerm;861;48.808;9.006;2024-02-26T02:38:48;37.74;36.39;39.07;;
41704;Laerm;861;48.808;9.006;2024-02-26T02:41:16;37.62;36.18;39.10;;
41704;Laerm;861;48.808;9.006;2024-02-26T02:43:44;37.69;36.36;39.04;;
41704;Laerm;861;48.808;9.006;2024-02-26T02:46:11;37.63;36.46;38.90;;
41704;Laerm;861;48.808;9.006;2024-02-26T02:48:42;37.79;36.52;39.16;;
41704;Laerm;861;48.808;9.006;2024-02-26T02:51:10;37.68;36.41;39.04;;
41704;Laerm;861;48.808;9.006;2024-02-26T02:53:37;37.81;36.50;39.05;;
41704;Laerm;861;48.808;9.006;2024-02-26T02:56:04;37.93;36.62;39.19;;
41704;Laerm;861;48.808;9.006;2024-02-26T02:58:30;38.09;36.79;39.36;;
41704;Laerm;861;48.808;9.006;2024-02-26T03:00:57;38.13;36.56;39.36;;
41704;Laerm;861;48.808;9.006;2024-02-26T03:03:26;38.17;36.63;39.36;;
41704;Laerm;861;48.808;9.006;2024-02-26T03:05:55;37.99;36.75;39.26;;
41704;Laerm;861;48.808;9.006;2024-02-26T03:08:22;38.06;36.35;39.38;;
41704;Laerm;861;48.808;9.006;2024-02-26T03:10:49;38.04;36.51;39.27;;
41704;Laerm;861;48.808;9.006;2024-02-26T03:13:15;37.95;36.73;39.29;;
41704;Laerm;861;48.808;9.006;2024-02-26T03:15:42;37.81;36.39;39.15;;
41704;Laerm;861;48.808;9.006;2024-02-26T03:18:09;37.85;36.51;39.08;;
41704;Laerm;861;48.808;9.006;2024-02-26T03:20:35;37.93;36.45;39.49;;
41704;Laerm;861;48.808;9.006;2024-02-26T03:23:04;37.92;36.34;39.08;;
41704;Laerm;861;48.808;9.006;2024-02-26T03:25:30;38.06;36.83;39.18;;
41704;Laerm;861;48.808;9.006;2024-02-26T03:27:57;38.20;36.93;39.67;;
41704;Laerm;861;48.808;9.006;2024-02-26T03:30:24;38.13;36.78;41.13;;
41704;Laerm;861;48.808;9.006;2024-02-26T03:32:51;38.30;37.01;43.90;;
41704;Laerm;861;48.808;9.006;2024-02-26T03:35:17;38.45;36.79;51.14;;
41704;Laerm;861;48.808;9.006;2024-02-26T03:37:46;38.25;36.66;40.36;;
41704;Laerm;861;48.808;9.006;2024-02-26T03:40:13;38.23;36.70;39.43;;
41704;Laerm;861;48.808;9.006;2024-02-26T03:42:41;38.22;36.89;39.49;;
41704;Laerm;861;48.808;9.006;2024-02-26T03:45:08;38.22;37.00;39.59;;
41704;Laerm;861;48.808;9.006;2024-02-26T03:47:37;38.20;36.82;39.40;;
41704;Laerm;861;48.808;9.006;2024-02-26T03:50:06;38.21;36.98;39.55;;
41704;Laerm;861;48.808;9.006;2024-02-26T03:52:34;38.21;36.71;39.52;;
41704;Laerm;861;48.808;9.006;2024-02-26T03:55:01;38.23;36.91;39.43;;
41704;Laerm;861;48.808;9.006;2024-02-26T03:57:27;38.22;36.79;39.37;;
41704;Laerm;861;48.808;9.006;2024-02-26T03:59:54;38.23;36.85;39.68;;
41704;Laerm;861;48.808;9.006;2024-02-26T04:02:20;38.21;36.76;39.41;;
41704;Laerm;861;48.808;9.006;2024-02-26T04:04:49;38.19;36.75;39.39;;
41704;Laerm;861;48.808;9.006;2024-02-26T04:07:16;38.21;36.88;39.46;;
41704;Laerm;861;48.808;9.006;2024-02-26T04:09:43;38.19;36.83;39.47;;
41704;Laerm;861;48.808;9.006;2024-02-26T04:12:10;38.20;36.99;39.63;;
41704;Laerm;861;48.808;9.006;2024-02-26T04:14:37;38.20;36.89;39.40;;
41704;Laerm;861;48.808;9.006;2024-02-26T04:17:04;38.21;36.87;39.46;;
41704;Laerm;861;48.808;9.006;2024-02-26T04:19:30;38.21;36.91;39.63;;
41704;Laerm;861;48.808;9.006;2024-02-26T04:21:57;38.20;37.03;39.63;;
41704;Laerm;861;48.808;9.006;2024-02-26T04:24:23;38.19;36.86;39.50;;
41704;Laerm;861;48.808;9.006;2024-02-26T04:26:50;38.19;36.82;39.35;;
41704;Laerm;861;48.808;9.006;2024-02-26T04:29:17;38.17;36.91;39.39;;
41704;Laerm;861;48.808;9.006;2024-02-26T04:31:43;38.19;36.88;39.59;;
41704;Laerm;861;48.808;9.006;2024-02-26T04:34:10;38.18;36.80;39.34;;
41704;Laerm;861;48.808;9.006;2024-02-26T04:36:36;38.15;36.75;39.38;;
41704;Laerm;861;48.808;9.006;2024-02-26T04:39:03;38.15;36.70;39.54;;
41704;Laerm;861;48.808;9.006;2024-02-26T04:41:30;38.13;36.64;39.34;;
41704;Laerm;861;48.808;9.006;2024-02-26T04:43:56;37.92;36.63;39.08;;
41704;Laerm;861;48.808;9.006;2024-02-26T04:46:23;37.93;36.52;39.07;;
41704;Laerm;861;48.808;9.006;2024-02-26T04:48:49;38.13;36.47;39.50;;
41704;Laerm;861;48.808;9.006;2024-02-26T04:51:16;38.18;36.86;39.51;;
41704;Laerm;861;48.808;9.006;2024-02-26T04:53:42;38.18;37.01;39.42;;
41704;Laerm;861;48.808;9.006;2024-02-26T04:56:09;38.19;36.74;39.35;;
41704;Laerm;861;48.808;9.006;2024-02-26T04:58:35;38.20;37.03;39.52;;
41704;Laerm;861;48.808;9.006;2024-02-26T05:01:02;38.19;37.00;39.33;;
41704;Laerm;861;48.808;9.006;2024-02-26T05:03:29;38.17;36.81;39.69;;
41704;Laerm;861;48.808;9.006;2024-02-26T05:05:56;38.17;36.93;39.39;;
41704;Laerm;861;48.808;9.006;2024-02-26T05:08:24;38.18;36.87;39.69;;
41704;Laerm;861;48.808;9.006;2024-02-26T05:10:51;38.20;36.85;39.42;;
41704;Laerm;861;48.808;9.006;2024-02-26T05:13:17;38.20;36.90;39.31;;
41704;Laerm;861;48.808;9.006;2024-02-26T05:15:44;38.18;36.87;39.50;;
41704;Laerm;861;48.808;9.006;2024-02-26T05:18:13;38.19;37.03;39.59;;
41704;Laerm;861;48.808;9.006;2024-02-26T05:20:39;38.19;37.08;39.39;;
41704;Laerm;861;48.808;9.006;2024-02-26T05:23:06;38.19;36.96;39.58;;
41704;Laerm;861;48.808;9.006;2024-02-26T05:25:33;38.18;37.04;39.44;;
41704;Laerm;861;48.808;9.006;2024-02-26T05:27:59;38.14;36.75;39.29;;
41704;Laerm;861;48.808;9.006;2024-02-26T05:30:26;38.15;36.84;39.39;;
41704;Laerm;861;48.808;9.006;2024-02-26T05:32:55;38.15;36.98;39.56;;
41704;Laerm;861;48.808;9.006;2024-02-26T05:35:21;38.14;36.78;39.33;;
41704;Laerm;861;48.808;9.006;2024-02-26T05:37:48;38.16;36.84;39.39;;
41704;Laerm;861;48.808;9.006;2024-02-26T05:40:15;38.13;36.64;39.35;;
41704;Laerm;861;48.808;9.006;2024-02-26T05:42:41;38.01;36.70;39.24;;
41704;Laerm;861;48.808;9.006;2024-02-26T05:45:10;37.84;36.57;39.09;;
41704;Laerm;861;48.808;9.006;2024-02-26T05:47:37;37.81;36.47;38.89;;
41704;Laerm;861;48.808;9.006;2024-02-26T05:50:10;37.84;36.54;39.05;;
41704;Laerm;861;48.808;9.006;2024-02-26T05:52:38;37.85;36.56;39.18;;
41704;Laerm;861;48.808;9.006;2024-02-26T05:55:07;37.81;36.34;39.09;;
41704;Laerm;861;48.808;9.006;2024-02-26T05:57:37;37.73;36.39;38.98;;
41704;Laerm;861;48.808;9.006;2024-02-26T06:00:05;37.65;36.28;38.84;;
41704;Laerm;861;48.808;9.006;2024-02-26T06:02:32;37.71;36.23;38.86;;
41704;Laerm;861;48.808;9.006;2024-02-26T06:04:58;37.62;36.27;38.73;;
41704;Laerm;861;48.808;9.006;2024-02-26T06:07:25;37.59;36.18;39.03;;
41704;Laerm;861;48.808;9.006;2024-02-26T06:09:52;37.66;36.45;38.82;;
41704;Laerm;861;48.808;9.006;2024-02-26T06:12:18;37.73;36.49;38.88;;
41704;Laerm;861;48.808;9.006;2024-02-26T06:14:45;37.55;36.30;38.77;;
41704;Laerm;861;48.808;9.006;2024-02-26T06:17:12;37.69;36.41;38.93;;
41704;Laerm;861;48.808;9.006;2024-02-26T06:19:38;37.59;36.34;38.91;;
41704;Laerm;861;48.808;9.006;2024-02-26T06:22:06;37.56;36.17;38.72;;
41704;Laerm;861;48.808;9.006;2024-02-26T06:24:33;37.57;36.19;38.66;;
41704;Laerm;861;48.808;9.006;2024-02-26T06:27:01;37.50;36.28;38.73;;
41704;Laerm;861;48.808;9.006;2024-02-26T06:29:29;37.65;36.36;38.67;;
41704;Laerm;861;48.808;9.006;2024-02-26T06:31:57;37.62;36.12;38.88;;
41704;Laerm;861;48.808;9.006;2024-02-26T06:34:23;37.70;36.32;39.02;;
41704;Laerm;861;48.808;9.006;2024-02-26T06:36:50;37.88;36.45;39.07;;
41704;Laerm;861;48.808;9.006;2024-02-26T06:39:17;37.86;36.57;39.10;;
41704;Laerm;861;48.808;9.006;2024-02-26T06:41:44;37.87;36.60;39.08;;
41704;Laerm;861;48.808;9.006;2024-02-26T06:44:14;37.94;36.69;38.99;;
41704;Laerm;861;48.808;9.006;2024-02-26T06:46:41;37.97;36.85;39.10;;
41704;Laerm;861;48.808;9.006;2024-02-26T06:49:07;37.97;36.56;39.23;;
41704;Laerm;861;48.808;9.006;2024-02-26T06:51:34;38.00;36.66;39.26;;
41704;Laerm;861;48.808;9.006;2024-02-26T06:54:01;37.95;36.54;39.08;;
41704;Laerm;861;48.808;9.006;2024-02-26T06:56:27;37.98;36.59;39.19;;
41704;Laerm;861;48.808;9.006;2024-02-26T06:58:54;38.05;36.47;39.42;;
41704;Laerm;861;48.808;9.006;2024-02-26T07:01:21;38.08;36.62;39.26;;
41704;Laerm;861;48.808;9.006;2024-02-26T07:03:49;38.08;36.84;39.28;;
41704;Laerm;861;48.808;9.006;2024-02-26T07:06:15;38.09;36.80;39.33;;
41704;Laerm;861;48.808;9.006;2024-02-26T07:08:43;38.00;36.67;39.17;;
41704;Laerm;861;48.808;9.006;2024-02-26T07:11:10;37.90;36.65;39.28;;
41704;Laerm;861;48.808;9.006;2024-02-26T07:13:37;37.95;36.58;39.05;;
41704;Laerm;861;48.808;9.006;2024-02-26T07:16:05;37.98;36.66;39.37;;
41704;Laerm;861;48.808;9.006;2024-02-26T07:18:32;37.99;36.54;39.14;;
41704;Laerm;861;48.808;9.006;2024-02-26T07:21:01;37.99;36.77;39.27;;
41704;Laerm;861;48.808;9.006;2024-02-26T07:23:28;38.00;36.68;39.16;;
41704;Laerm;861;48.808;9.006;2024-02-26T07:25:54;38.09;36.75;39.25;;
41704;Laerm;861;48.808;9.006;2024-02-26T07:28:21;38.10;36.73;39.24;;
41704;Laerm;861;48.808;9.006;2024-02-26T07:30:48;38.13;36.70;39.30;;
41704;Laerm;861;48.808;9.006;2024-02-26T07:33:14;38.13;36.91;39.32;;
41704;Laerm;861;48.808;9.006;2024-02-26T07:35:41;38.12;36.93;39.23;;
41704;Laerm;861;48.808;9.006;2024-02-26T07:38:07;38.13;36.79;39.35;;
41704;Laerm;861;48.808;9.006;2024-02-26T07:40:34;38.12;36.85;39.25;;
41704;Laerm;861;48.808;9.006;2024-02-26T07:43:00;38.14;36.76;39.30;;
41704;Laerm;861;48.808;9.006;2024-02-26T07:45:27;38.12;36.86;39.42;;
41704;Laerm;861;48.808;9.006;2024-02-26T07:47:54;38.11;36.71;39.24;;
41704;Laerm;861;48.808;9.006;2024-02-26T07:50:20;38.13;36.70;39.27;;
41704;Laerm;861;48.808;9.006;2024-02-26T07:52:47;38.14;36.83;39.61;;
41704;Laerm;861;48.808;9.006;2024-02-26T07:55:13;38.14;36.91;39.22;;
41704;Laerm;861;48.808;9.006;2024-02-26T07:57:43;38.18;36.54;39.37;;
41704;Laerm;861;48.808;9.006;2024-02-26T08:00:11;38.17;36.93;39.57;;
41704;Laerm;861;48.808;9.006;2024-02-26T08:02:38;38.17;36.79;39.37;;
41704;Laerm;861;48.808;9.006;2024-02-26T08:05:05;38.18;36.87;39.38;;
41704;Laerm;861;48.808;9.006;2024-02-26T08:07:31;38.19;36.88;39.34;;
41704;Laerm;861;48.808;9.006;2024-02-26T08:09:58;38.21;36.87;39.40;;
41704;Laerm;861;48.808;9.006;2024-02-26T08:12:24;38.21;36.86;39.53;;
41704;Laerm;861;48.808;9.006;2024-02-26T08:14:52;38.23;37.04;39.42;;
41704;Laerm;861;48.808;9.006;2024-02-26T08:17:18;38.21;37.03;39.30;;
41704;Laerm;861;48.808;9.006;2024-02-26T08:19:45;38.23;36.87;39.40;;
41704;Laerm;861;48.808;9.006;2024-02-26T08:22:11;38.21;36.89;39.47;;
41704;Laerm;861;48.808;9.006;2024-02-26T08:24:43;38.22;36.88;39.32;;
41704;Laerm;861;48.808;9.006;2024-02-26T08:27:10;38.22;36.88;39.25;;
41704;Laerm;861;48.808;9.006;2024-02-26T08:29:37;38.23;36.82;39.52;;
41704;Laerm;861;48.808;9.006;2024-02-26T08:32:04;38.26;37.04;39.64;;
41704;Laerm;861;48.808;9.006;2024-02-26T08:34:30;38.27;37.03;39.39;;
41704;Laerm;861;48.808;9.006;2024-02-26T08:36:57;38.29;36.88;39.40;;
41704;Laerm;861;48.808;9.006;2024-02-26T08:39:23;38.30;37.01;39.60;;
41704;Laerm;861;48.808;9.006;2024-02-26T08:41:52;38.28;36.93;39.82;;
41704;Laerm;861;48.808;9.006;2024-02-26T08:44:19;38.30;37.11;39.52;;
41704;Laerm;861;48.808;9.006;2024-02-26T08:46:45;38.31;36.81;39.74;;
41704;Laerm;861;48.808;9.006;2024-02-26T08:49:12;38.31;37.03;39.39;;
41704;Laerm;861;48.808;9.006;2024-02-26T08:51:45;38.29;37.05;39.51;;
41704;Laerm;861;48.808;9.006;2024-02-26T08:54:11;38.30;36.92;39.72;;
41704;Laerm;861;48.808;9.006;2024-02-26T08:56:38;38.30;37.10;39.52;;
41704;Laerm;861;48.808;9.006;2024-02-26T08:59:05;38.28;36.75;39.41;;
41704;Laerm;861;48.808;9.006;2024-02-26T09:01:34;38.29;36.83;39.46;;
41704;Laerm;861;48.808;9.006;2024-02-26T09:04:01;38.29;36.82;39.55;;
41704;Laerm;861;48.808;9.006;2024-02-26T09:06:29;38.28;37.07;39.45;;
41704;Laerm;861;48.808;9.006;2024-02-26T09:08:55;38.29;36.98;39.45;;
41704;Laerm;861;48.808;9.006;2024-02-26T09:11:22;38.28;36.83;39.51;;
41704;Laerm;861;48.808;9.006;2024-02-26T09:13:49;38.28;37.02;39.54;;
41704;Laerm;861;48.808;9.006;2024-02-26T09:16:15;38.29;37.12;39.49;;
41704;Laerm;861;48.808;9.006;2024-02-26T09:18:42;38.30;36.87;39.54;;
41704;Laerm;861;48.808;9.006;2024-02-26T09:21:08;38.31;36.92;39.60;;
41704;Laerm;861;48.808;9.006;2024-02-26T09:23:35;38.30;36.69;39.89;;
41704;Laerm;861;48.808;9.006;2024-02-26T09:26:01;38.29;37.02;39.71;;
41704;Laerm;861;48.808;9.006;2024-02-26T09:28:28;38.30;37.10;39.40;;
41704;Laerm;861;48.808;9.006;2024-02-26T09:30:57;38.29;36.94;39.52;;
41704;Laerm;861;48.808;9.006;2024-02-26T09:33:24;38.29;37.03;39.55;;
41704;Laerm;861;48.808;9.006;2024-02-26T09:35:50;38.28;36.98;39.51;;
41704;Laerm;861;48.808;9.006;2024-02-26T09:38:17;38.28;36.86;39.88;;
41704;Laerm;861;48.808;9.006;2024-02-26T09:40:44;38.29;37.04;39.43;;
41704;Laerm;861;48.808;9.006;2024-02-26T09:43:17;38.27;37.00;39.55;;
41704;Laerm;861;48.808;9.006;2024-02-26T09:45:50;38.26;37.00;39.41;;
41704;Laerm;861;48.808;9.006;2024-02-26T09:48:18;38.23;37.01;39.41;;
41704;Laerm;861;48.808;9.006;2024-02-26T09:50:46;38.24;37.02;39.49;;
41704;Laerm;861;48.808;9.006;2024-02-26T09:53:13;38.31;36.86;39.61;;
41704;Laerm;861;48.808;9.006;2024-02-26T09:55:41;38.34;37.02;39.73;;
41704;Laerm;861;48.808;9.006;2024-02-26T09:58:11;38.35;37.06;39.68;;
41704;Laerm;861;48.808;9.006;2024-02-26T10:00:56;38.33;36.89;39.59;;
41704;Laerm;861;48.808;9.006;2024-02-26T10:03:41;38.31;36.87;39.50;;
41704;Laerm;861;48.808;9.006;2024-02-26T10:06:09;38.30;37.11;39.39;;
41704;Laerm;861;48.808;9.006;2024-02-26T10:08:37;38.29;36.93;39.60;;
41704;Laerm;861;48.808;9.006;2024-02-26T10:11:08;38.24;36.58;39.43;;
41704;Laerm;861;48.808;9.006;2024-02-26T10:13:36;38.18;36.80;39.47;;
41704;Laerm;861;48.808;9.006;2024-02-26T10:16:04;38.18;36.75;39.63;;
41704;Laerm;861;48.808;9.006;2024-02-26T10:18:50;38.15;36.83;39.38;;
41704;Laerm;861;48.808;9.006;2024-02-26T10:21:20;38.14;36.83;39.51;;
41704;Laerm;861;48.808;9.006;2024-02-26T10:23:48;38.10;36.71;39.27;;
41704;Laerm;861;48.808;9.006;2024-02-26T10:26:16;38.09;36.55;39.26;;
41704;Laerm;861;48.808;9.006;2024-02-26T10:28:45;38.09;36.61;39.32;;
41704;Laerm;861;48.808;9.006;2024-02-26T10:31:14;38.05;36.77;39.24;;
41704;Laerm;861;48.808;9.006;2024-02-26T10:33:43;38.06;36.34;39.35;;
41704;Laerm;861;48.808;9.006;2024-02-26T10:36:11;38.04;36.57;39.38;;
41704;Laerm;861;48.808;9.006;2024-02-26T10:38:38;38.00;36.64;39.50;;
41704;Laerm;861;48.808;9.006;2024-02-26T10:41:13;37.99;36.69;39.30;;
41704;Laerm;861;48.808;9.006;2024-02-26T10:43:39;37.96;36.66;39.27;;
41704;Laerm;861;48.808;9.006;2024-02-26T10:46:07;37.92;36.47;39.11;;
41704;Laerm;861;48.808;9.006;2024-02-26T10:48:35;37.90;36.59;39.23;;
41704;Laerm;861;48.808;9.006;2024-02-26T10:51:02;37.86;36.01;39.20;;
41704;Laerm;861;48.808;9.006;2024-02-26T10:53:31;37.83;36.24;39.26;;
41704;Laerm;861;48.808;9.006;2024-02-26T10:56:04;37.86;36.44;39.15;;
41704;Laerm;861;48.808;9.006;2024-02-26T10:58:33;37.87;36.35;39.17;;
41704;Laerm;861;48.808;9.006;2024-02-26T11:01:00;37.85;36.43;39.07;;
41704;Laerm;861;48.808;9.006;2024-02-26T11:03:30;37.80;36.24;39.14;;
41704;Laerm;861;48.808;9.006;2024-02-26T11:06:03;37.76;36.34;39.04;;
41704;Laerm;861;48.808;9.006;2024-02-26T11:08:32;37.70;36.13;38.86;;
41704;Laerm;861;48.808;9.006;2024-02-26T11:11:00;37.69;36.39;38.99;;
41704;Laerm;861;48.808;9.006;2024-02-26T11:13:32;37.65;36.15;38.84;;
41704;Laerm;861;48.808;9.006;2024-02-26T11:16:02;37.60;36.20;39.04;;
41704;Laerm;861;48.808;9.006;2024-02-26T11:18:31;37.54;36.23;38.80;;
41704;Laerm;861;48.808;9.006;2024-02-26T11:21:00;37.48;36.22;38.66;;
41704;Laerm;861;48.808;9.006;2024-02-26T11:23:27;37.44;35.93;38.85;;
41704;Laerm;861;48.808;9.006;2024-02-26T11:25:59;37.44;35.99;38.81;;
41704;Laerm;861;48.808;9.006;2024-02-26T11:28:32;37.36;36.14;38.62;;
41704;Laerm;861;48.808;9.006;2024-02-26T11:31:03;37.34;35.93;38.72;;
41704;Laerm;861;48.808;9.006;2024-02-26T11:33:32;37.30;35.89;38.54;;
41704;Laerm;861;48.808;9.006;2024-02-26T11:36:00;37.34;35.97;38.59;;
41704;Laerm;861;48.808;9.006;2024-02-26T11:38:28;37.39;36.01;38.82;;
41704;Laerm;861;48.808;9.006;2024-02-26T11:40:55;37.35;36.04;38.62;;
41704;Laerm;861;48.808;9.006;2024-02-26T11:44:00;37.33;35.76;38.92;;
41704;Laerm;861;48.808;9.006;2024-02-26T11:46:42;37.33;35.83;38.64;;
41704;Laerm;861;48.808;9.006;2024-02-26T11:51:59;37.46;36.16;38.93;;
41704;Laerm;861;48.808;9.006;2024-02-26T11:54:45;37.43;35.99;38.84;;
41704;Laerm;861;48.808;9.006;2024-02-26T11:57:38;37.33;35.95;38.51;;
41704;Laerm;861;48.808;9.006;2024-02-26T12:00:12;37.29;35.83;38.59;;
41704;Laerm;861;48.808;9.006;2024-02-26T12:02:52;37.09;35.71;38.38;;
41704;Laerm;861;48.808;9.006;2024-02-26T12:05:33;36.99;35.43;38.40;;
41704;Laerm;861;48.808;9.006;2024-02-26T12:08:03;36.98;35.65;38.47;;
41704;Laerm;861;48.808;9.006;2024-02-26T12:10:40;36.97;35.34;38.31;;
41704;Laerm;861;48.808;9.006;2024-02-26T12:13:15;36.91;35.40;38.24;;
41704;Laerm;861;48.808;9.006;2024-02-26T12:15:57;36.90;35.47;38.09;;
41704;Laerm;861;48.808;9.006;2024-02-26T12:18:26;36.86;35.47;38.47;;
41704;Laerm;861;48.808;9.006;2024-02-26T12:21:04;36.86;35.37;38.01;;
41704;Laerm;861;48.808;9.006;2024-02-26T12:23:31;36.83;35.40;38.25;;
41704;Laerm;861;48.808;9.006;2024-02-26T12:26:02;36.87;35.30;38.12;;
41704;Laerm;861;48.808;9.006;2024-02-26T12:28:32;36.90;35.52;38.30;;
41704;Laerm;861;48.808;9.006;2024-02-26T12:31:00;36.87;35.38;38.21;;
41704;Laerm;861;48.808;9.006;2024-02-26T12:33:30;36.86;35.39;38.23;;
41704;Laerm;861;48.808;9.006;2024-02-26T12:35:57;36.88;35.22;38.17;;
41704;Laerm;861;48.808;9.006;2024-02-26T12:38:26;36.86;35.38;38.09;;
41704;Laerm;861;48.808;9.006;2024-02-26T12:40:53;36.87;35.40;38.34;;
41704;Laerm;861;48.808;9.006;2024-02-26T12:43:20;36.91;35.28;38.20;;
41704;Laerm;861;48.808;9.006;2024-02-26T12:45:47;36.94;35.57;38.48;;
41704;Laerm;861;48.808;9.006;2024-02-26T12:48:14;36.93;35.42;38.13;;
41704;Laerm;861;48.808;9.006;2024-02-26T12:50:44;36.88;35.47;38.18;;
41704;Laerm;861;48.808;9.006;2024-02-26T12:53:12;36.87;35.32;38.26;;
41704;Laerm;861;48.808;9.006;2024-02-26T12:55:39;36.85;35.57;38.05;;
41704;Laerm;861;48.808;9.006;2024-02-26T12:58:08;36.87;35.55;38.31;;
41704;Laerm;861;48.808;9.006;2024-02-26T13:00:35;36.87;35.46;38.11;;
41704;Laerm;861;48.808;9.006;2024-02-26T13:03:03;36.89;35.14;38.33;;
41704;Laerm;861;48.808;9.006;2024-02-26T13:05:32;36.87;35.45;38.18;;
41704;Laerm;861;48.808;9.006;2024-02-26T13:07:59;36.88;35.34;38.34;;
41704;Laerm;861;48.808;9.006;2024-02-26T13:10:26;36.91;35.22;38.20;;
41704;Laerm;861;48.808;9.006;2024-02-26T13:12:53;36.96;35.59;38.28;;
41704;Laerm;861;48.808;9.006;2024-02-26T13:15:22;37.00;35.70;38.25;;
41704;Laerm;861;48.808;9.006;2024-02-26T13:17:50;36.94;35.40;38.48;;
41704;Laerm;861;48.808;9.006;2024-02-26T13:20:29;36.92;35.62;38.30;;
41704;Laerm;861;48.808;9.006;2024-02-26T13:23:05;36.94;35.52;38.32;;
41704;Laerm;861;48.808;9.006;2024-02-26T13:25:34;36.91;35.32;38.29;;
41704;Laerm;861;48.808;9.006;2024-02-26T13:28:18;36.97;35.30;38.30;;
41704;Laerm;861;48.808;9.006;2024-02-26T13:30:56;37.06;35.68;38.56;;
41704;Laerm;861;48.808;9.006;2024-02-26T13:33:26;37.13;35.48;38.54;;
41704;Laerm;861;48.808;9.006;2024-02-26T13:35:55;36.96;35.48;38.28;;
41704;Laerm;861;48.808;9.006;2024-02-26T13:38:23;36.80;35.31;38.32;;
41704;Laerm;861;48.808;9.006;2024-02-26T13:40:51;36.70;35.46;38.11;;
41704;Laerm;861;48.808;9.006;2024-02-26T13:43:19;36.67;35.30;38.11;;
41704;Laerm;861;48.808;9.006;2024-02-26T13:45:47;36.65;35.43;38.17;;
41704;Laerm;861;48.808;9.006;2024-02-26T13:48:15;36.65;35.34;38.40;;
41704;Laerm;861;48.808;9.006;2024-02-26T13:50:43;36.68;35.18;38.03;;
41704;Laerm;861;48.808;9.006;2024-02-26T13:53:12;36.70;35.43;38.08;;
41704;Laerm;861;48.808;9.006;2024-02-26T13:55:41;36.73;35.07;38.07;;
41704;Laerm;861;48.808;9.006;2024-02-26T13:58:13;36.75;35.28;37.97;;
41704;Laerm;861;48.808;9.006;2024-02-26T14:00:42;36.69;34.99;38.11;;
41704;Laerm;861;48.808;9.006;2024-02-26T14:03:09;36.71;35.38;38.13;;
41704;Laerm;861;48.808;9.006;2024-02-26T14:05:35;36.71;35.29;38.22;;
41704;Laerm;861;48.808;9.006;2024-02-26T14:08:02;36.71;35.06;37.97;;
41704;Laerm;861;48.808;9.006;2024-02-26T14:10:29;36.71;35.47;38.24;;
41704;Laerm;861;48.808;9.006;2024-02-26T14:12:58;36.71;35.17;38.01;;
41704;Laerm;861;48.808;9.006;2024-02-26T14:15:25;36.75;35.19;38.00;;
41704;Laerm;861;48.808;9.006;2024-02-26T14:17:53;36.70;35.34;37.94;;